Terminal Aerodrome Forecast
Issued by NWS Grand Forks, ND

Home | Current Version | Previous Version | Graphics & Text | Print | Product List | Glossary On
Versions: 1 2 3 4 5 6 7 8 9 10 11 12
000
FTUS43 KFGF 241400 AAA
TAFGFK
TAF AMD
KGFK 241406Z 2414/2512 34015G24KT P6SM SCT025
     FM242000 34017KT P6SM FEW250
     FM250100 36006KT P6SM FEW250=

USA.gov is the U.S. government's official web portal to all federal, state and local government web resources and services.